Portada
METAR-TAF:

METAR-TAF

Aeroports :

Kisarazu, Japó

latitud: 35-24N, longitud: 139-55E, altitud: 3 m

Observació

L'informe es va fer fa 1 hora i 36 minuts, a les 23:03 UTC
Vent 9 kt del Nord
Temperatura 9°C
Humitat 81%
Pressió 1033 hPa
Visibilitat 10 km o més
Escasses núvols a una alçada de 1000 ft
Cel ennuvolat a una alçada de 1500 ft
xàfecs de pluja

METAR: RJTK 212303Z 01009KT 9999 -SHRA FEW010 BKN015 09/06 Q1033 RMK 1ST010 7CU015 A3050

Hora: 09:39 (00:39 UTC)


TAF: manca

Observacions i pronòstics meteorològics de més de 4000 aeroports (METAR i TAF).

Les estacions disponibles són els punts grocs i vermells al mapa.

Posi el ratolí al punt desitjat per veure el nom de l'estació.

Feu clic per veure les observacions i els pronòstics meteorològics.

Per canviar el mapa: feu clic els botons verds amb una creu de color negre per apropar; al botó verd amb un guió per allunyar la imatge; o en les fletxes verdes per a mapes adjacents.


METAR-TAF: